createdAt,value
2022-12-17T00:00:30.603Z,9.463064
2022-12-17T00:01:30.505Z,9.462999
2022-12-17T00:02:30.679Z,9.462954
2022-12-17T00:03:30.626Z,9.463140
2022-12-17T00:04:30.482Z,9.462990
2022-12-17T00:05:30.451Z,9.463013
2022-12-17T00:06:30.458Z,9.463021
2022-12-17T00:07:30.425Z,9.462945
2022-12-17T00:08:30.435Z,9.462905
2022-12-17T00:09:30.431Z,9.463026
2022-12-17T00:10:30.418Z,9.463018
2022-12-17T00:11:30.418Z,9.462868
2022-12-17T00:12:30.430Z,9.463081
2022-12-17T00:13:30.456Z,9.462950
2022-12-17T00:14:30.443Z,9.462900
2022-12-17T00:15:30.384Z,9.462762
2022-12-17T00:16:30.404Z,9.462810
2022-12-17T00:17:30.408Z,9.462679
2022-12-17T00:18:30.416Z,9.462762
2022-12-17T00:19:30.364Z,9.462720
2022-12-17T00:20:30.361Z,9.462396
2022-12-17T00:21:30.383Z,9.462729
2022-12-17T00:22:30.375Z,9.462939
2022-12-17T00:23:30.350Z,9.462944
2022-12-17T00:24:30.350Z,9.463089
2022-12-17T00:25:30.339Z,9.462947
2022-12-17T00:26:30.344Z,9.462926
2022-12-17T00:27:30.321Z,9.462741
2022-12-17T00:28:30.319Z,9.462764
2022-12-17T00:29:30.324Z,9.463049
2022-12-17T00:30:30.471Z,9.462983
2022-12-17T00:31:30.356Z,9.462959
2022-12-17T00:32:30.319Z,9.462891
2022-12-17T00:33:30.314Z,9.463023
2022-12-17T00:34:30.292Z,9.463067
2022-12-17T00:35:30.299Z,9.462882
2022-12-17T00:36:30.302Z,9.462898
2022-12-17T00:37:30.283Z,9.462829
2022-12-17T00:38:30.284Z,9.462711
2022-12-17T00:39:30.256Z,9.462804
2022-12-17T00:40:30.266Z,9.462742
2022-12-17T00:41:30.262Z,9.462883
2022-12-17T00:42:30.246Z,9.462903
2022-12-17T00:43:30.247Z,9.462893
2022-12-17T00:44:30.254Z,9.462749
2022-12-17T00:45:30.225Z,9.463091
2022-12-17T00:46:30.308Z,9.463109
2022-12-17T00:47:30.250Z,9.463086
2022-12-17T00:48:30.267Z,9.463039
2022-12-17T00:49:30.241Z,9.462884
2022-12-17T00:50:30.279Z,9.462849
2022-12-17T00:51:30.185Z,9.462811
2022-12-17T00:52:30.441Z,9.462673
2022-12-17T00:53:30.193Z,9.462687
2022-12-17T00:54:30.179Z,9.462760
2022-12-17T00:55:30.495Z,9.462832
2022-12-17T00:56:30.186Z,9.462914
2022-12-17T00:57:30.183Z,9.463099
2022-12-17T00:58:30.182Z,9.462887
2022-12-17T00:59:30.143Z,9.462891
2022-12-17T01:00:30.225Z,9.462840
2022-12-17T01:01:30.415Z,9.462852
2022-12-17T01:02:30.273Z,9.462859
2022-12-17T01:03:30.134Z,9.462884
2022-12-17T01:04:30.135Z,9.462868
2022-12-17T01:05:30.136Z,9.462910
2022-12-17T01:06:30.111Z,9.462924
2022-12-17T01:07:30.127Z,9.462888
2022-12-17T01:08:30.104Z,9.462992
2022-12-17T01:09:30.094Z,9.462873
2022-12-17T01:10:30.120Z,9.462850
2022-12-17T01:11:30.110Z,9.462868
2022-12-17T01:12:30.082Z,9.462883
2022-12-17T01:13:30.089Z,9.462898
2022-12-17T01:14:30.062Z,9.462957
2022-12-17T01:15:30.076Z,9.462921
2022-12-17T01:16:30.219Z,9.462941
2022-12-17T01:17:30.080Z,9.463025
2022-12-17T01:18:30.064Z,9.462955
2022-12-17T01:19:30.128Z,9.463051
2022-12-17T01:20:30.042Z,9.463027
2022-12-17T01:21:30.078Z,9.463062
2022-12-17T01:22:30.042Z,9.463024
2022-12-17T01:23:30.086Z,9.462956
2022-12-17T01:24:30.010Z,9.462970
2022-12-17T01:25:30.024Z,9.462954
2022-12-17T01:26:30.000Z,9.462975
2022-12-17T01:27:30.027Z,9.462971
2022-12-17T01:28:30.009Z,9.462953
2022-12-17T01:29:30.000Z,9.462957
2022-12-17T01:30:29.987Z,9.462950
2022-12-17T01:31:34.642Z,9.462991
2022-12-17T01:32:31.006Z,9.462994
2022-12-17T01:33:29.986Z,9.462970
2022-12-17T01:34:30.009Z,9.462939
2022-12-17T01:35:30.651Z,9.462973
2022-12-17T01:36:29.957Z,9.462953
2022-12-17T01:37:29.964Z,9.462965
2022-12-17T01:38:29.961Z,9.462953
2022-12-17T01:39:29.951Z,9.462990
2022-12-17T01:40:29.936Z,9.462991
2022-12-17T01:41:29.938Z,9.462966
2022-12-17T01:42:29.926Z,9.462966
2022-12-17T01:43:29.913Z,9.463013
2022-12-17T01:44:30.002Z,9.462942
2022-12-17T01:45:29.953Z,9.462951
2022-12-17T01:46:29.917Z,9.462993
2022-12-17T01:47:29.908Z,9.462938
2022-12-17T01:48:29.895Z,9.462929
2022-12-17T01:49:29.897Z,9.462945
2022-12-17T01:50:29.891Z,9.462945
2022-12-17T01:51:29.878Z,9.462957
2022-12-17T01:52:29.895Z,9.462950
2022-12-17T01:53:29.903Z,9.462912
2022-12-17T01:54:29.870Z,9.462934
2022-12-17T01:55:29.892Z,9.463040
2022-12-17T01:56:29.869Z,9.463022
2022-12-17T01:57:29.847Z,9.462966
2022-12-17T01:58:29.860Z,9.462975
2022-12-17T01:59:29.843Z,9.462969
2022-12-17T02:00:29.835Z,9.462973
2022-12-17T02:01:29.927Z,9.462921
2022-12-17T02:02:30.031Z,9.462967
2022-12-17T02:03:29.814Z,9.462962
2022-12-17T02:04:29.827Z,9.462980
2022-12-17T02:05:29.803Z,9.463012
2022-12-17T02:06:29.825Z,9.463012
2022-12-17T02:07:29.859Z,9.462980
2022-12-17T02:08:29.817Z,9.463022
2022-12-17T02:09:29.818Z,9.462985
2022-12-17T02:10:29.786Z,9.462948
2022-12-17T02:11:29.775Z,9.462964
2022-12-17T02:12:29.806Z,9.462983
2022-12-17T02:13:29.764Z,9.462956
2022-12-17T02:14:29.783Z,9.462954
2022-12-17T02:15:29.768Z,9.462957
2022-12-17T02:16:29.865Z,9.462968
2022-12-17T02:17:29.758Z,9.462964
2022-12-17T02:18:29.766Z,9.462969
2022-12-17T02:19:29.746Z,9.462994
2022-12-17T02:20:29.747Z,9.463001
2022-12-17T02:21:29.722Z,9.462977
2022-12-17T02:22:29.754Z,9.462915
2022-12-17T02:23:30.045Z,9.462976
2022-12-17T02:24:29.737Z,9.462934
2022-12-17T02:25:29.733Z,9.462944
2022-12-17T02:26:29.719Z,9.462941
2022-12-17T02:27:29.708Z,9.462963
2022-12-17T02:28:29.703Z,9.462991
2022-12-17T02:29:29.699Z,9.462956
2022-12-17T02:30:29.695Z,9.462898
2022-12-17T02:31:29.728Z,9.462931
2022-12-17T02:32:29.688Z,9.462939
2022-12-17T02:33:29.688Z,9.462971
2022-12-17T02:34:29.747Z,9.462966
2022-12-17T02:35:29.667Z,9.462991
2022-12-17T02:36:29.653Z,9.462991
2022-12-17T02:37:29.652Z,9.462981
2022-12-17T02:38:29.652Z,9.462974
2022-12-17T02:39:29.628Z,9.462977
2022-12-17T02:40:29.659Z,9.462939
2022-12-17T02:41:29.657Z,9.463007
2022-12-17T02:42:29.647Z,9.462980
2022-12-17T02:43:29.651Z,9.463007
2022-12-17T02:44:29.646Z,9.462950
2022-12-17T02:45:29.680Z,9.462999
2022-12-17T02:46:29.636Z,9.462997
2022-12-17T02:47:29.600Z,9.462953
2022-12-17T02:48:29.593Z,9.463011
2022-12-17T02:49:29.590Z,9.462941
2022-12-17T02:50:29.584Z,9.462957
2022-12-17T02:51:29.588Z,9.462974
2022-12-17T02:52:34.710Z,9.463001
2022-12-17T02:53:29.559Z,9.463009
2022-12-17T02:54:29.576Z,9.462966
2022-12-17T02:55:29.568Z,9.462950
2022-12-17T02:56:29.560Z,9.462920
2022-12-17T02:57:29.561Z,9.462956
2022-12-17T02:58:29.563Z,9.462982
2022-12-17T02:59:29.542Z,9.462959
2022-12-17T03:00:29.541Z,9.462955
2022-12-17T03:01:29.725Z,9.462983
2022-12-17T03:02:29.687Z,9.462961
2022-12-17T03:03:29.560Z,9.462977
2022-12-17T03:04:29.686Z,9.462963
2022-12-17T03:05:44.964Z,9.462966
2022-12-17T03:06:30.525Z,9.462975
2022-12-17T03:07:29.691Z,9.462964
2022-12-17T03:08:29.491Z,9.462963
2022-12-17T03:09:29.509Z,9.462961
2022-12-17T03:10:29.480Z,9.463028
2022-12-17T03:11:29.477Z,9.462984
2022-12-17T03:12:29.487Z,9.462970
2022-12-17T03:13:29.492Z,9.462967
2022-12-17T03:14:29.476Z,9.462941
2022-12-17T03:15:29.466Z,9.462934
2022-12-17T03:16:34.183Z,9.462916
2022-12-17T03:17:29.454Z,9.462906
2022-12-17T03:18:29.440Z,9.462946
2022-12-17T03:19:29.432Z,9.462954
2022-12-17T03:20:29.454Z,9.462944
2022-12-17T03:21:29.416Z,9.463054
2022-12-17T03:22:29.436Z,9.462922
2022-12-17T03:23:29.422Z,9.462919
2022-12-17T03:24:29.407Z,9.463005
2022-12-17T03:25:29.409Z,9.462966
2022-12-17T03:26:29.402Z,9.462967
2022-12-17T03:27:29.386Z,9.462956
2022-12-17T03:28:29.416Z,9.463037
2022-12-17T03:29:29.498Z,9.462987
2022-12-17T03:30:33.221Z,9.462926
2022-12-17T03:31:30.465Z,9.462954
2022-12-17T03:32:29.387Z,9.462944
2022-12-17T03:33:29.356Z,9.462947
2022-12-17T03:34:29.392Z,9.462954
2022-12-17T03:35:29.359Z,9.462918
2022-12-17T03:36:29.350Z,9.462947
2022-12-17T03:37:29.363Z,9.462924
2022-12-17T03:38:29.343Z,9.462921
2022-12-17T03:39:29.334Z,9.462902
2022-12-17T03:40:29.402Z,9.462913
2022-12-17T03:41:29.315Z,9.462928
2022-12-17T03:42:29.345Z,9.462933
2022-12-17T03:43:29.333Z,9.462932
2022-12-17T03:44:29.347Z,9.462957
2022-12-17T03:45:29.320Z,9.462948
2022-12-17T03:46:29.384Z,9.462914
2022-12-17T03:47:29.324Z,9.462929
2022-12-17T03:48:29.314Z,9.462934
2022-12-17T03:49:29.288Z,9.462927
2022-12-17T03:50:29.280Z,9.462941
2022-12-17T03:51:29.274Z,9.462929
2022-12-17T03:52:29.286Z,9.462921
2022-12-17T03:53:29.415Z,9.462963
2022-12-17T03:54:29.279Z,9.462950
2022-12-17T03:55:29.254Z,9.462930
2022-12-17T03:56:29.248Z,9.462908
2022-12-17T03:57:29.241Z,9.462943
2022-12-17T03:58:29.273Z,9.462968
2022-12-17T03:59:29.238Z,9.462961
2022-12-17T04:00:29.240Z,9.462933
2022-12-17T04:01:29.454Z,9.462923
2022-12-17T04:02:29.479Z,9.462951
2022-12-17T04:03:29.318Z,9.462924
2022-12-17T04:04:29.219Z,9.462946
2022-12-17T04:05:29.199Z,9.462953
2022-12-17T04:06:29.218Z,9.462939
2022-12-17T04:07:29.196Z,9.462938
2022-12-17T04:08:29.186Z,9.462956
2022-12-17T04:09:29.188Z,9.462927
2022-12-17T04:10:29.179Z,9.462961
2022-12-17T04:11:29.158Z,9.462996
2022-12-17T04:12:29.172Z,9.462949
2022-12-17T04:13:29.200Z,9.462976
2022-12-17T04:14:29.166Z,9.463037
2022-12-17T04:15:29.201Z,9.463034
2022-12-17T04:16:29.141Z,9.463069
2022-12-17T04:17:29.161Z,9.463045
2022-12-17T04:18:29.157Z,9.463059
2022-12-17T04:19:29.116Z,9.463019
2022-12-17T04:20:29.543Z,9.462978
2022-12-17T04:21:29.114Z,9.463024
2022-12-17T04:22:29.126Z,9.463023
2022-12-17T04:23:29.111Z,9.463007
2022-12-17T04:24:29.105Z,9.462980
2022-12-17T04:25:29.104Z,9.463006
2022-12-17T04:26:29.097Z,9.462971
2022-12-17T04:27:29.078Z,9.462956
2022-12-17T04:28:29.068Z,9.462977
2022-12-17T04:29:29.088Z,9.462965
2022-12-17T04:30:29.090Z,9.462951
2022-12-17T04:31:29.157Z,9.462981
2022-12-17T04:32:33.643Z,9.462997
2022-12-17T04:33:30.104Z,9.463004
2022-12-17T04:34:29.052Z,9.462980
2022-12-17T04:35:29.048Z,9.462978
2022-12-17T04:36:29.039Z,9.462970
2022-12-17T04:37:29.035Z,9.462941
2022-12-17T04:38:29.027Z,9.462978
2022-12-17T04:39:29.050Z,9.462938
2022-12-17T04:40:29.012Z,9.462990
2022-12-17T04:41:29.021Z,9.462968
2022-12-17T04:42:29.013Z,9.462941
2022-12-17T04:43:29.074Z,9.462952
2022-12-17T04:44:29.207Z,9.463036
2022-12-17T04:45:29.011Z,9.462999
2022-12-17T04:46:29.028Z,9.462975
2022-12-17T04:47:29.001Z,9.463017
2022-12-17T04:48:29.132Z,9.463087
2022-12-17T04:49:29.121Z,9.463058
2022-12-17T04:50:28.954Z,9.463034
2022-12-17T04:51:28.975Z,9.462976
2022-12-17T04:52:28.945Z,9.463021
2022-12-17T04:53:28.970Z,9.463000
2022-12-17T04:54:28.949Z,9.463039
2022-12-17T04:55:28.962Z,9.463082
2022-12-17T04:56:28.941Z,9.463088
2022-12-17T04:57:29.002Z,9.462951
2022-12-17T04:58:28.946Z,9.462977
2022-12-17T04:59:28.931Z,9.462936
2022-12-17T05:00:28.918Z,9.462954
2022-12-17T05:01:29.115Z,9.462978
2022-12-17T05:02:29.098Z,9.463016
2022-12-17T05:03:29.092Z,9.463029
2022-12-17T05:04:28.934Z,9.463042
2022-12-17T05:05:29.006Z,9.463026
2022-12-17T05:06:28.889Z,9.462981
2022-12-17T05:07:28.893Z,9.462975
2022-12-17T05:08:28.890Z,9.462954
2022-12-17T05:09:28.873Z,9.463037
2022-12-17T05:10:28.927Z,9.462963
2022-12-17T05:11:28.874Z,9.462994
2022-12-17T05:12:28.849Z,9.462976
2022-12-17T05:13:28.866Z,9.463030
2022-12-17T05:14:28.853Z,9.462956
2022-12-17T05:15:28.841Z,9.462958
2022-12-17T05:16:28.921Z,9.462906
2022-12-17T05:17:28.831Z,9.462958
2022-12-17T05:18:28.830Z,9.462953
2022-12-17T05:19:28.838Z,9.462949
2022-12-17T05:20:28.829Z,9.463021
2022-12-17T05:21:33.171Z,9.463020
2022-12-17T05:22:28.814Z,9.463010
2022-12-17T05:23:28.817Z,9.463001
2022-12-17T05:24:28.799Z,9.462993
2022-12-17T05:25:28.801Z,9.462994
2022-12-17T05:26:28.798Z,9.463037
2022-12-17T05:27:28.771Z,9.463017
2022-12-17T05:28:28.800Z,9.463012
2022-12-17T05:29:28.777Z,9.463021
2022-12-17T05:30:28.764Z,9.462961
2022-12-17T05:31:28.887Z,9.462957
2022-12-17T05:32:28.751Z,9.462988
2022-12-17T05:33:28.753Z,9.463011
2022-12-17T05:34:28.767Z,9.463011
2022-12-17T05:35:28.729Z,9.462987
2022-12-17T05:36:28.749Z,9.462953
2022-12-17T05:37:28.797Z,9.462974
2022-12-17T05:38:28.744Z,9.462983
2022-12-17T05:39:28.713Z,9.462965
2022-12-17T05:40:28.728Z,9.462999
2022-12-17T05:41:28.702Z,9.463022
2022-12-17T05:42:28.703Z,9.463051
2022-12-17T05:43:28.705Z,9.463080
2022-12-17T05:44:28.719Z,9.463058
2022-12-17T05:45:28.709Z,9.462993
2022-12-17T05:46:28.777Z,9.463023
2022-12-17T05:47:28.668Z,9.463083
2022-12-17T05:48:28.683Z,9.463140
2022-12-17T05:49:28.660Z,9.463035
2022-12-17T05:50:28.678Z,9.463009
2022-12-17T05:51:28.663Z,9.462986
2022-12-17T05:52:28.682Z,9.463092
2022-12-17T05:53:28.764Z,9.463041
2022-12-17T05:54:28.655Z,9.463077
2022-12-17T05:55:28.638Z,9.463026
2022-12-17T05:56:28.628Z,9.463017
2022-12-17T05:57:28.633Z,9.463008
2022-12-17T05:58:28.632Z,9.463046
2022-12-17T05:59:28.617Z,9.463023
2022-12-17T06:00:28.622Z,9.463034
2022-12-17T06:01:28.614Z,9.463042
2022-12-17T06:02:28.649Z,9.462977
2022-12-17T06:03:28.794Z,9.463065
2022-12-17T06:04:28.589Z,9.463042
2022-12-17T06:05:28.594Z,9.463115
2022-12-17T06:06:28.615Z,9.462989
2022-12-17T06:07:28.567Z,9.463128
2022-12-17T06:08:28.583Z,9.463078
2022-12-17T06:09:28.591Z,9.463121
2022-12-17T06:10:28.620Z,9.463159
2022-12-17T06:11:28.545Z,9.463024
2022-12-17T06:12:28.605Z,9.462974
2022-12-17T06:13:28.537Z,9.463148
2022-12-17T06:14:28.539Z,9.463088
2022-12-17T06:15:28.545Z,9.463047
2022-12-17T06:16:28.665Z,9.463147
2022-12-17T06:17:28.530Z,9.463061
2022-12-17T06:18:28.546Z,9.463020
2022-12-17T06:19:28.520Z,9.462938
2022-12-17T06:20:28.523Z,9.462984
2022-12-17T06:21:28.496Z,9.463106
2022-12-17T06:22:28.510Z,9.463008
2022-12-17T06:23:28.502Z,9.462921
2022-12-17T06:24:28.496Z,9.462868
2022-12-17T06:25:28.527Z,9.462904
2022-12-17T06:26:28.505Z,9.463016
2022-12-17T06:27:28.462Z,9.463011
2022-12-17T06:28:28.481Z,9.462985
2022-12-17T06:29:28.469Z,9.462973
2022-12-17T06:30:28.475Z,9.462972
2022-12-17T06:31:28.559Z,9.462999
2022-12-17T06:32:28.451Z,9.463012
2022-12-17T06:33:28.446Z,9.463013
2022-12-17T06:34:28.444Z,9.462977
2022-12-17T06:35:28.445Z,9.462968
2022-12-17T06:36:28.433Z,9.462937
2022-12-17T06:37:28.411Z,9.462898
2022-12-17T06:38:28.411Z,9.462945
2022-12-17T06:39:28.430Z,9.463030
2022-12-17T06:40:28.415Z,9.463022
2022-12-17T06:41:28.420Z,9.463028
2022-12-17T06:42:28.394Z,9.463012
2022-12-17T06:43:28.386Z,9.462947
2022-12-17T06:44:28.381Z,9.462908
2022-12-17T06:45:28.382Z,9.462960
2022-12-17T06:46:28.433Z,9.462846
2022-12-17T06:47:28.370Z,9.462885
2022-12-17T06:48:28.376Z,9.462889
2022-12-17T06:49:28.344Z,9.462889
2022-12-17T06:50:28.375Z,9.462867
2022-12-17T06:51:28.349Z,9.462898
2022-12-17T06:52:28.340Z,9.462898
2022-12-17T06:53:28.394Z,9.462900
2022-12-17T06:54:28.342Z,9.462954
2022-12-17T06:55:28.324Z,9.462933
2022-12-17T06:56:28.319Z,9.462872
2022-12-17T06:57:28.343Z,9.462895
2022-12-17T06:58:28.351Z,9.462974
2022-12-17T06:59:28.299Z,9.462888
2022-12-17T07:00:28.391Z,9.462917
2022-12-17T07:01:28.441Z,9.462948
2022-12-17T07:02:28.454Z,9.462966
2022-12-17T07:03:28.417Z,9.462972
2022-12-17T07:04:28.285Z,9.462937
2022-12-17T07:05:28.278Z,9.462950
2022-12-17T07:06:28.328Z,9.462951
2022-12-17T07:07:28.257Z,9.462978
2022-12-17T07:08:28.292Z,9.462983
2022-12-17T07:09:28.268Z,9.462971
2022-12-17T07:10:28.265Z,9.463002
2022-12-17T07:11:28.327Z,9.463020
2022-12-17T07:12:28.247Z,9.463024
2022-12-17T07:13:28.248Z,9.462957
2022-12-17T07:14:28.256Z,9.462981
2022-12-17T07:15:28.250Z,9.462984
2022-12-17T07:16:28.293Z,9.462950
2022-12-17T07:17:28.216Z,9.462972
2022-12-17T07:18:28.221Z,9.463007
2022-12-17T07:19:28.205Z,9.463026
2022-12-17T07:20:28.356Z,9.463099
2022-12-17T07:21:28.204Z,9.462974
2022-12-17T07:22:28.194Z,9.462967
2022-12-17T07:23:28.222Z,9.462994
2022-12-17T07:24:28.167Z,9.462921
2022-12-17T07:25:28.177Z,9.462843
2022-12-17T07:26:28.179Z,9.462888
2022-12-17T07:27:28.154Z,9.462973
2022-12-17T07:28:28.144Z,9.462966
2022-12-17T07:29:28.194Z,9.462980
2022-12-17T07:30:28.156Z,9.462972
2022-12-17T07:31:28.174Z,9.463000
2022-12-17T07:32:28.146Z,9.463016
2022-12-17T07:33:28.141Z,9.462998
2022-12-17T07:34:28.115Z,9.462996
2022-12-17T07:35:28.117Z,9.463010
2022-12-17T07:36:28.103Z,9.463053
2022-12-17T07:37:28.107Z,9.463000
2022-12-17T07:38:28.113Z,9.463035
2022-12-17T07:39:28.096Z,9.463007
2022-12-17T07:40:28.105Z,9.463019
2022-12-17T07:41:28.101Z,9.463023
2022-12-17T07:42:28.071Z,9.463024
2022-12-17T07:43:28.071Z,9.463068
2022-12-17T07:44:28.072Z,9.463081
2022-12-17T07:45:28.166Z,9.463040
2022-12-17T07:46:28.052Z,9.463037
2022-12-17T07:47:28.064Z,9.462995
2022-12-17T07:48:28.045Z,9.463058
2022-12-17T07:49:28.179Z,9.463044
2022-12-17T07:50:28.045Z,9.463105
2022-12-17T07:51:28.070Z,9.463013
2022-12-17T07:52:28.079Z,9.463015
2022-12-17T07:53:28.043Z,9.463077
2022-12-17T07:54:28.205Z,9.463062
2022-12-17T07:55:28.028Z,9.463031
2022-12-17T07:56:28.023Z,9.462960
2022-12-17T07:57:28.011Z,9.462892
2022-12-17T07:58:28.011Z,9.463013
2022-12-17T07:59:28.011Z,9.463076
2022-12-17T08:00:28.112Z,9.463095
2022-12-17T08:01:28.139Z,9.463018
2022-12-17T08:02:28.251Z,9.463043
2022-12-17T08:03:28.030Z,9.463002
2022-12-17T08:04:27.970Z,9.463026
2022-12-17T08:05:27.973Z,9.463054
2022-12-17T08:06:27.963Z,9.463036
2022-12-17T08:07:27.966Z,9.463045
2022-12-17T08:08:27.943Z,9.463047
2022-12-17T08:09:27.942Z,9.463058
2022-12-17T08:10:27.943Z,9.463052
2022-12-17T08:11:27.966Z,9.463070
2022-12-17T08:12:27.930Z,9.463057
2022-12-17T08:13:27.936Z,9.463330
2022-12-17T08:14:27.903Z,9.463247
2022-12-17T08:15:27.910Z,9.463017
2022-12-17T08:16:27.988Z,9.462976
2022-12-17T08:17:27.981Z,9.463120
2022-12-17T08:18:27.890Z,9.463168
2022-12-17T08:19:27.932Z,9.463022
2022-12-17T08:20:27.870Z,9.463135
2022-12-17T08:21:27.899Z,9.463209
2022-12-17T08:22:27.915Z,9.463043
2022-12-17T08:23:27.859Z,9.462976
2022-12-17T08:24:27.862Z,9.463146
2022-12-17T08:25:27.866Z,9.462767
2022-12-17T08:26:27.831Z,9.462844
2022-12-17T08:27:27.850Z,9.462926
2022-12-17T08:28:49.460Z,9.462957
2022-12-17T08:29:28.827Z,9.462976
2022-12-17T08:30:27.909Z,9.462887
2022-12-17T08:31:27.821Z,9.462520
2022-12-17T08:32:27.825Z,9.462842
2022-12-17T08:33:27.882Z,9.462908
2022-12-17T08:34:27.797Z,9.463053
2022-12-17T08:35:27.811Z,9.463036
2022-12-17T08:36:27.788Z,9.463000
2022-12-17T08:37:27.793Z,9.462982
2022-12-17T08:38:27.803Z,9.462980
2022-12-17T08:39:27.806Z,9.463003
2022-12-17T08:40:27.787Z,9.462990
2022-12-17T08:41:27.782Z,9.462988
2022-12-17T08:42:27.755Z,9.462977
2022-12-17T08:43:27.802Z,9.462994
2022-12-17T08:44:27.764Z,9.462993
2022-12-17T08:45:27.747Z,9.462956
2022-12-17T08:46:27.897Z,9.462949
2022-12-17T08:47:27.749Z,9.463012
2022-12-17T08:48:27.719Z,9.463010
2022-12-17T08:49:27.754Z,9.462969
2022-12-17T08:50:27.757Z,9.462976
2022-12-17T08:51:27.710Z,9.462955
2022-12-17T08:52:27.721Z,9.462966
2022-12-17T08:53:31.925Z,9.463000
2022-12-17T08:54:28.748Z,9.462975
2022-12-17T08:55:27.726Z,9.462998
2022-12-17T08:56:27.687Z,9.463017
2022-12-17T08:57:31.917Z,9.463000
2022-12-17T08:58:27.675Z,9.463022
2022-12-17T08:59:27.787Z,9.462997
2022-12-17T09:00:27.789Z,9.463011
2022-12-17T09:01:27.850Z,9.463015
2022-12-17T09:02:27.878Z,9.463034
2022-12-17T09:03:27.750Z,9.463035
2022-12-17T09:04:27.644Z,9.463023
2022-12-17T09:05:27.675Z,9.462966
2022-12-17T09:06:27.635Z,9.462985
2022-12-17T09:07:27.631Z,9.462968
2022-12-17T09:08:27.629Z,9.463005
2022-12-17T09:09:27.611Z,9.463000
2022-12-17T09:10:27.612Z,9.462961
2022-12-17T09:11:27.612Z,9.462934
2022-12-17T09:12:27.608Z,9.462937
2022-12-17T09:13:27.603Z,9.462939
2022-12-17T09:14:27.572Z,9.462934
2022-12-17T09:15:27.590Z,9.462924
2022-12-17T09:16:27.653Z,9.462980
2022-12-17T09:17:27.584Z,9.462935
2022-12-17T09:18:27.564Z,9.462969
2022-12-17T09:19:27.566Z,9.462848
2022-12-17T09:20:29.396Z,9.462884
2022-12-17T09:21:27.565Z,9.462954
2022-12-17T09:22:27.539Z,9.462955
2022-12-17T09:23:27.526Z,9.462987
2022-12-17T09:24:27.526Z,9.463009
2022-12-17T09:25:27.533Z,9.462994
2022-12-17T09:26:27.504Z,9.463086
2022-12-17T09:27:27.522Z,9.462955
2022-12-17T09:28:27.522Z,9.462996
2022-12-17T09:29:27.512Z,9.462950
2022-12-17T09:30:27.548Z,9.462961
2022-12-17T09:31:31.150Z,9.462976
2022-12-17T09:32:28.483Z,9.463012
2022-12-17T09:33:27.496Z,9.463014
2022-12-17T09:34:27.458Z,9.463019
2022-12-17T09:35:27.465Z,9.462990
2022-12-17T09:36:27.850Z,9.462971
2022-12-17T09:37:27.466Z,9.463021
2022-12-17T09:38:27.463Z,9.463026
2022-12-17T09:39:27.579Z,9.462989
2022-12-17T09:40:27.441Z,9.462980
2022-12-17T09:41:27.426Z,9.463001
2022-12-17T09:42:27.415Z,9.462977
2022-12-17T09:43:27.429Z,9.463054
2022-12-17T09:44:27.438Z,9.463009
2022-12-17T09:45:27.579Z,9.463013
2022-12-17T09:46:27.569Z,9.462986
2022-12-17T09:47:27.381Z,9.463072
2022-12-17T09:48:32.210Z,9.462958
2022-12-17T09:49:28.393Z,9.463037
2022-12-17T09:50:27.370Z,9.462975
2022-12-17T09:51:27.359Z,9.462973
2022-12-17T09:52:27.373Z,9.462955
2022-12-17T09:53:27.379Z,9.462948
2022-12-17T09:54:27.358Z,9.462910
2022-12-17T09:55:27.362Z,9.462950
2022-12-17T09:56:27.344Z,9.462963
2022-12-17T09:57:27.326Z,9.462976
2022-12-17T09:58:27.345Z,9.462970
2022-12-17T09:59:27.502Z,9.462973
2022-12-17T10:00:27.334Z,9.463034
2022-12-17T10:01:27.500Z,9.463156
2022-12-17T10:02:27.480Z,9.463029
2022-12-17T10:03:27.429Z,9.463002
2022-12-17T10:04:27.295Z,9.462900
2022-12-17T10:05:27.285Z,9.462892
2022-12-17T10:06:28.149Z,9.462932
2022-12-17T10:07:27.279Z,9.462995
2022-12-17T10:08:27.271Z,9.462847
2022-12-17T10:09:27.278Z,9.463274
2022-12-17T10:10:27.308Z,9.463277
2022-12-17T10:11:32.670Z,9.463052
2022-12-17T10:12:28.316Z,9.463015
2022-12-17T10:13:27.241Z,9.463033
2022-12-17T10:14:27.231Z,9.462985
2022-12-17T10:15:27.307Z,9.462990
2022-12-17T10:16:27.250Z,9.462955
2022-12-17T10:17:27.223Z,9.462944
2022-12-17T10:18:27.236Z,9.463077
2022-12-17T10:19:27.216Z,9.463083
2022-12-17T10:20:27.209Z,9.463085
2022-12-17T10:21:27.192Z,9.463055
2022-12-17T10:22:27.189Z,9.463032
2022-12-17T10:23:27.269Z,9.463029
2022-12-17T10:24:27.184Z,9.463023
2022-12-17T10:25:27.191Z,9.463027
2022-12-17T10:26:27.159Z,9.462998
2022-12-17T10:27:27.175Z,9.462996
2022-12-17T10:28:27.155Z,9.463006
2022-12-17T10:29:27.154Z,9.462955
2022-12-17T10:30:27.127Z,9.462967
2022-12-17T10:31:27.212Z,9.462957
2022-12-17T10:32:27.138Z,9.463007
2022-12-17T10:33:27.130Z,9.462932
2022-12-17T10:34:27.115Z,9.462959
2022-12-17T10:35:27.125Z,9.463013
2022-12-17T10:36:27.086Z,9.462923
2022-12-17T10:37:27.104Z,9.462968
2022-12-17T10:38:27.145Z,9.462968
2022-12-17T10:39:27.090Z,9.462827
2022-12-17T10:40:27.078Z,9.462816
2022-12-17T10:41:34.264Z,9.462878
2022-12-17T10:42:30.171Z,9.462947
2022-12-17T10:43:28.062Z,9.462994
2022-12-17T10:44:27.036Z,9.462985
2022-12-17T10:45:27.065Z,9.462977
2022-12-17T10:46:27.109Z,9.462957
2022-12-17T10:47:27.028Z,9.462955
2022-12-17T10:48:27.096Z,9.462939
2022-12-17T10:49:27.048Z,9.462936
2022-12-17T10:50:26.993Z,9.462961
2022-12-17T10:51:27.074Z,9.462970
2022-12-17T10:52:27.024Z,9.462983
2022-12-17T10:53:27.119Z,9.462989
2022-12-17T10:54:26.969Z,9.462990
2022-12-17T10:55:26.985Z,9.462983
2022-12-17T10:56:26.957Z,9.462965
2022-12-17T10:57:27.016Z,9.462951
2022-12-17T10:58:26.971Z,9.462980
2022-12-17T10:59:26.962Z,9.462970
2022-12-17T11:00:26.947Z,9.463001
2022-12-17T11:01:27.160Z,9.462971
2022-12-17T11:02:27.149Z,9.462999
2022-12-17T11:03:27.077Z,9.462980
2022-12-17T11:04:26.941Z,9.462958
2022-12-17T11:05:26.926Z,9.462946
2022-12-17T11:06:26.905Z,9.462984
2022-12-17T11:07:26.893Z,9.462976
2022-12-17T11:08:26.880Z,9.462993
2022-12-17T11:09:26.904Z,9.462988
2022-12-17T11:10:26.891Z,9.462996
2022-12-17T11:11:26.879Z,9.463023
2022-12-17T11:12:30.573Z,9.463027
2022-12-17T11:13:26.908Z,9.463017
2022-12-17T11:14:26.847Z,9.463027
2022-12-17T11:15:26.889Z,9.463062
2022-12-17T11:16:26.915Z,9.462987
2022-12-17T11:17:26.841Z,9.462994
2022-12-17T11:18:26.824Z,9.463023
2022-12-17T11:19:26.818Z,9.463092
2022-12-17T11:20:26.829Z,9.463054
2022-12-17T11:21:26.848Z,9.463019
2022-12-17T11:22:26.793Z,9.463022
2022-12-17T11:23:26.802Z,9.462996
2022-12-17T11:24:26.793Z,9.463039
2022-12-17T11:25:26.777Z,9.463057
2022-12-17T11:26:26.762Z,9.463119
2022-12-17T11:27:26.782Z,9.462837
2022-12-17T11:28:26.754Z,9.462967
2022-12-17T11:29:26.795Z,9.462995
2022-12-17T11:30:30.741Z,9.462862
2022-12-17T11:31:26.821Z,9.462917
2022-12-17T11:32:26.801Z,9.463044
2022-12-17T11:33:26.736Z,9.463101
2022-12-17T11:34:26.722Z,9.463104
2022-12-17T11:35:26.753Z,9.463048
2022-12-17T11:36:32.425Z,9.463053
2022-12-17T11:37:27.755Z,9.463065
2022-12-17T11:38:26.707Z,9.463122
2022-12-17T11:39:26.700Z,9.463106
2022-12-17T11:40:26.702Z,9.463050
2022-12-17T11:41:26.704Z,9.462941
2022-12-17T11:42:26.686Z,9.463175
2022-12-17T11:43:26.686Z,9.463007
2022-12-17T11:44:26.666Z,9.463102